createdAt,value
2023-03-06T00:00:57.832Z,4.06
2023-03-06T00:03:59.898Z,4.00
2023-03-06T00:07:02.015Z,4.00
2023-03-06T00:10:06.791Z,4.01
2023-03-06T00:13:12.226Z,4.05
2023-03-06T00:16:14.360Z,3.84
2023-03-06T00:19:16.271Z,3.88
2023-03-06T00:22:18.931Z,3.91
2023-03-06T00:25:22.778Z,3.89
2023-03-06T00:28:25.343Z,3.93
2023-03-06T00:31:27.541Z,4.07
2023-03-06T00:34:29.614Z,3.89
2023-03-06T00:37:31.597Z,3.89
2023-03-06T00:40:33.967Z,3.75
2023-03-06T00:43:35.901Z,3.67
2023-03-06T00:46:38.159Z,3.78
2023-03-06T00:49:40.336Z,3.99
2023-03-06T00:52:43.530Z,3.88
2023-03-06T00:55:46.063Z,3.75
2023-03-06T00:58:49.244Z,3.95
2023-03-06T01:01:51.390Z,3.87
2023-03-06T01:04:53.524Z,4.03
2023-03-06T01:07:55.723Z,4.04
2023-03-06T01:10:57.742Z,3.86
2023-03-06T01:13:59.754Z,3.95
2023-03-06T01:17:01.674Z,4.13
2023-03-06T01:20:05.110Z,3.77
2023-03-06T01:23:07.292Z,3.79
2023-03-06T01:26:10.038Z,3.79
2023-03-06T01:29:12.205Z,3.78
2023-03-06T01:32:14.295Z,3.82
2023-03-06T01:35:16.432Z,3.80
2023-03-06T01:38:18.783Z,3.88
2023-03-06T01:41:21.649Z,3.91
2023-03-06T01:44:23.806Z,3.86
2023-03-06T01:47:26.147Z,4.00
2023-03-06T01:50:28.845Z,3.98
2023-03-06T01:53:31.690Z,3.79
2023-03-06T01:56:33.938Z,3.71
2023-03-06T01:59:38.887Z,3.70
2023-03-06T02:02:44.070Z,3.86
2023-03-06T02:05:47.699Z,3.91
2023-03-06T02:08:52.401Z,3.98
2023-03-06T02:11:54.431Z,4.03
2023-03-06T02:14:56.985Z,3.96
2023-03-06T02:18:00.473Z,3.97
2023-03-06T02:21:06.207Z,4.01
2023-03-06T02:24:28.217Z,4.05
2023-03-06T02:27:31.199Z,4.05
2023-03-06T02:30:35.150Z,4.11
2023-03-06T02:33:37.062Z,4.09
2023-03-06T02:36:44.432Z,4.16
2023-03-06T02:39:54.958Z,4.08
2023-03-06T02:42:58.549Z,4.06
2023-03-06T02:46:01.152Z,4.13
2023-03-06T02:49:03.515Z,3.98
2023-03-06T02:52:06.980Z,3.83
2023-03-06T02:55:09.323Z,3.96
2023-03-06T02:58:11.255Z,4.13
2023-03-06T03:01:17.371Z,4.05
2023-03-06T03:04:19.693Z,4.25
2023-03-06T03:07:21.905Z,4.36
2023-03-06T03:10:24.272Z,4.24
2023-03-06T03:13:26.770Z,4.33
2023-03-06T03:16:28.662Z,4.36
2023-03-06T03:19:30.760Z,4.15
2023-03-06T03:22:33.397Z,4.31
2023-03-06T03:25:37.482Z,4.30
2023-03-06T03:28:39.590Z,4.30
2023-03-06T03:31:41.916Z,4.22
2023-03-06T03:34:46.550Z,4.22
2023-03-06T03:37:48.570Z,4.28
2023-03-06T03:40:52.165Z,4.38
2023-03-06T03:43:54.319Z,4.18
2023-03-06T03:46:56.208Z,4.26
2023-03-06T03:49:58.056Z,4.32
2023-03-06T03:53:04.563Z,4.40
2023-03-06T03:56:08.924Z,4.34
2023-03-06T03:59:11.232Z,4.28
2023-03-06T04:02:14.605Z,4.40
2023-03-06T04:05:16.917Z,4.24
2023-03-06T04:08:21.214Z,4.16
2023-03-06T04:11:23.629Z,4.40
2023-03-06T04:14:28.605Z,4.36
2023-03-06T04:17:30.801Z,4.17
2023-03-06T04:20:32.960Z,4.42
2023-03-06T04:23:35.165Z,4.48
2023-03-06T04:26:37.624Z,4.18
2023-03-06T04:29:39.875Z,4.25
2023-03-06T04:32:41.883Z,4.31
2023-03-06T04:35:44.032Z,4.45
2023-03-06T04:38:46.093Z,4.74
2023-03-06T04:41:48.364Z,4.52
2023-03-06T04:44:50.526Z,4.41
2023-03-06T04:47:52.659Z,4.50
2023-03-06T04:50:55.739Z,4.40
2023-03-06T04:53:58.792Z,4.39
2023-03-06T04:57:01.113Z,4.39
2023-03-06T05:00:06.692Z,4.18
2023-03-06T05:03:09.145Z,4.24
2023-03-06T05:06:11.149Z,4.47
2023-03-06T05:09:13.148Z,4.21
2023-03-06T05:12:15.375Z,4.17
2023-03-06T05:15:18.092Z,4.28
2023-03-06T05:18:21.625Z,4.38
2023-03-06T05:21:23.697Z,4.38
2023-03-06T05:24:26.119Z,4.62
2023-03-06T05:27:28.979Z,4.21
2023-03-06T05:30:30.931Z,4.23
2023-03-06T05:33:35.366Z,4.23
2023-03-06T05:36:37.736Z,4.12
2023-03-06T05:39:39.754Z,4.17
2023-03-06T05:42:42.157Z,4.53
2023-03-06T05:45:44.689Z,4.41
2023-03-06T05:48:47.238Z,4.58
2023-03-06T05:51:49.822Z,4.18
2023-03-06T05:54:53.966Z,4.30
2023-03-06T05:57:56.282Z,4.30
2023-03-06T06:00:58.561Z,4.19
2023-03-06T06:04:02.268Z,4.31
2023-03-06T06:07:06.070Z,4.29
2023-03-06T06:10:08.972Z,4.27
2023-03-06T06:13:11.036Z,4.41
2023-03-06T06:16:19.335Z,4.62
2023-03-06T06:19:23.231Z,4.46
2023-03-06T06:22:25.348Z,4.42
2023-03-06T06:25:29.227Z,4.51
2023-03-06T06:28:32.374Z,4.73
2023-03-06T06:31:37.680Z,4.60
2023-03-06T06:34:39.688Z,4.44
2023-03-06T06:37:41.879Z,4.40
2023-03-06T06:40:44.787Z,4.58
2023-03-06T06:43:51.288Z,4.79
2023-03-06T06:50:18.349Z,4.61
2023-03-06T06:53:20.878Z,4.73
2023-03-06T06:56:23.565Z,4.81
2023-03-06T07:03:40.040Z,4.78
2023-03-06T07:11:01.659Z,4.41
2023-03-06T07:18:51.459Z,4.70
2023-03-06T07:21:59.404Z,4.69
2023-03-06T07:26:05.307Z,4.78
2023-03-06T07:29:13.192Z,4.49
2023-03-06T07:32:19.105Z,4.89
2023-03-06T07:35:28.595Z,4.77
2023-03-06T07:38:36.929Z,4.61
2023-03-06T07:41:43.699Z,4.56
2023-03-06T07:44:55.363Z,4.79
2023-03-06T07:48:01.609Z,4.73
2023-03-06T07:51:07.788Z,4.53
2023-03-06T07:54:21.248Z,4.69
2023-03-06T07:57:35.495Z,4.37
2023-03-06T08:31:41.947Z,4.43
2023-03-06T08:34:46.185Z,4.43
2023-03-06T08:37:48.960Z,4.83
2023-03-06T08:40:52.865Z,4.82
2023-03-06T08:43:55.842Z,4.87
2023-03-06T08:47:01.074Z,5.12
2023-03-06T08:50:10.325Z,5.35
2023-03-06T08:53:13.343Z,5.33
2023-03-06T08:56:29.201Z,5.69
2023-03-06T08:59:39.162Z,5.84
2023-03-06T09:10:29.828Z,5.11
2023-03-06T09:13:35.210Z,5.40
2023-03-06T09:16:58.184Z,5.18
2023-03-06T09:20:25.612Z,5.25
2023-03-06T09:23:37.651Z,5.55
2023-03-06T09:26:49.353Z,5.31
2023-03-06T09:30:05.836Z,5.63
2023-03-06T09:33:12.302Z,5.62
2023-03-06T09:36:20.950Z,5.32
2023-03-06T09:39:26.906Z,5.20
2023-03-06T09:42:36.214Z,5.15
2023-03-06T09:45:43.522Z,5.16
2023-03-06T09:49:18.222Z,5.25
2023-03-06T09:53:04.299Z,5.76
2023-03-06T09:56:19.987Z,5.93
2023-03-06T09:59:32.063Z,5.82
2023-03-06T10:02:53.283Z,6.15
2023-03-06T10:07:06.228Z,6.07
2023-03-06T10:10:47.709Z,5.97
2023-03-06T10:14:33.653Z,6.12
2023-03-06T10:17:55.036Z,6.27
2023-03-06T10:21:18.711Z,6.09
2023-03-06T10:24:52.352Z,6.05
2023-03-06T10:28:17.343Z,5.85
2023-03-06T10:31:27.402Z,5.97
2023-03-06T10:34:36.973Z,6.12
2023-03-06T10:37:42.301Z,5.68
2023-03-06T10:41:27.773Z,5.80
2023-03-06T10:44:32.453Z,5.91
2023-03-06T10:47:36.337Z,5.73
2023-03-06T10:50:39.600Z,5.96
2023-03-06T10:54:20.433Z,5.90
2023-03-06T10:57:32.285Z,6.16
2023-03-06T11:01:56.333Z,6.07
2023-03-06T11:10:44.283Z,6.10
2023-03-06T11:23:42.882Z,6.33
2023-03-06T11:27:12.130Z,6.10
2023-03-06T11:30:22.681Z,6.29
2023-03-06T11:33:46.874Z,6.55
2023-03-06T11:37:10.574Z,6.39
2023-03-06T11:40:43.444Z,6.52
2023-03-06T11:44:15.661Z,6.41
2023-03-06T11:47:37.844Z,6.70
2023-03-06T11:50:48.743Z,6.64
2023-03-06T11:53:53.800Z,6.80
2023-03-06T11:57:14.946Z,6.79
2023-03-06T12:00:58.263Z,6.68
2023-03-06T12:04:14.257Z,6.72
2023-03-06T12:07:49.613Z,6.65
2023-03-06T12:11:03.345Z,6.87
2023-03-06T12:18:38.987Z,7.00
2023-03-06T12:23:14.830Z,6.92
2023-03-06T12:26:41.851Z,7.02
2023-03-06T12:34:08.999Z,7.42
2023-03-06T12:37:12.070Z,7.27
2023-03-06T12:40:26.658Z,7.28
2023-03-06T12:44:20.329Z,7.25
2023-03-06T12:47:28.418Z,7.41
2023-03-06T12:50:38.367Z,7.41
2023-03-06T12:53:55.350Z,7.44
2023-03-06T12:56:59.524Z,7.38
2023-03-06T13:00:02.468Z,7.67
2023-03-06T13:03:35.351Z,7.68
2023-03-06T13:07:06.063Z,7.36
2023-03-06T13:10:20.566Z,6.99
2023-03-06T13:14:03.311Z,6.82
2023-03-06T13:17:36.158Z,7.00
2023-03-06T13:21:54.725Z,7.09
2023-03-06T13:25:26.184Z,7.13
2023-03-06T13:28:53.145Z,6.87
2023-03-06T13:32:04.621Z,6.88
2023-03-06T13:35:33.766Z,6.60
2023-03-06T13:38:40.946Z,6.57
2023-03-06T13:42:05.575Z,6.45
2023-03-06T13:45:24.173Z,6.60
2023-03-06T13:48:45.506Z,6.85
2023-03-06T13:51:54.805Z,6.67
2023-03-06T13:55:19.153Z,6.70
2023-03-06T13:59:07.051Z,6.68
2023-03-06T14:02:55.000Z,6.67
2023-03-06T14:05:59.433Z,6.59
2023-03-06T14:09:06.429Z,6.39
2023-03-06T14:12:27.772Z,6.27
2023-03-06T14:15:55.123Z,6.52
2023-03-06T14:19:03.929Z,6.45
2023-03-06T14:22:13.356Z,6.43
2023-03-06T14:25:18.958Z,6.27
2023-03-06T14:32:05.047Z,6.19
2023-03-06T14:35:19.101Z,6.12
2023-03-06T14:38:22.529Z,6.00
2023-03-06T14:41:28.370Z,6.09
2023-03-06T14:44:30.830Z,6.24
2023-03-06T14:47:37.897Z,6.01
2023-03-06T14:50:41.074Z,5.94
2023-03-06T14:53:45.823Z,5.83
2023-03-06T14:56:53.672Z,5.71
2023-03-06T15:00:00.395Z,5.72
2023-03-06T15:03:10.208Z,5.83
2023-03-06T15:06:32.020Z,5.94
2023-03-06T15:09:39.349Z,6.00
2023-03-06T15:12:41.994Z,5.91
2023-03-06T15:16:09.673Z,5.75
2023-03-06T15:19:42.889Z,5.67
2023-03-06T15:22:59.887Z,5.67
2023-03-06T15:26:28.727Z,5.65
2023-03-06T15:29:40.527Z,5.68
2023-03-06T15:32:44.146Z,5.76
2023-03-06T15:36:05.446Z,5.57
2023-03-06T15:39:45.971Z,5.60
2023-03-06T15:42:51.045Z,5.65
2023-03-06T15:46:00.250Z,5.60
2023-03-06T15:49:05.406Z,5.52
2023-03-06T15:52:10.377Z,5.58
2023-03-06T15:55:17.276Z,5.69
2023-03-06T15:58:30.895Z,5.45
2023-03-06T16:01:43.581Z,5.33
2023-03-06T16:04:47.069Z,5.44
2023-03-06T16:07:49.995Z,5.48
2023-03-06T16:10:52.894Z,5.37
2023-03-06T16:13:58.257Z,5.24
2023-03-06T16:17:03.860Z,5.14
2023-03-06T16:20:11.140Z,4.96
2023-03-06T16:23:15.528Z,5.11
2023-03-06T16:26:44.900Z,5.33
2023-03-06T16:29:51.618Z,5.03
2023-03-06T16:32:54.178Z,4.92
2023-03-06T16:35:56.619Z,4.83
2023-03-06T16:39:00.794Z,4.77
2023-03-06T16:42:03.442Z,4.75
2023-03-06T16:45:09.523Z,4.68
2023-03-06T16:48:16.001Z,4.77
2023-03-06T16:51:23.726Z,4.73
2023-03-06T16:54:26.618Z,4.73
2023-03-06T16:57:36.334Z,4.83
2023-03-06T17:00:39.940Z,4.82
2023-03-06T17:03:42.707Z,4.80
2023-03-06T17:06:46.056Z,4.88
2023-03-06T17:09:48.125Z,4.89
2023-03-06T17:12:50.580Z,4.79
2023-03-06T17:15:59.507Z,4.83
2023-03-06T17:19:02.758Z,4.72
2023-03-06T17:22:05.123Z,4.84
2023-03-06T17:25:10.600Z,4.78
2023-03-06T17:28:13.523Z,4.65
2023-03-06T17:31:21.504Z,4.88
2023-03-06T17:34:24.683Z,4.78
2023-03-06T17:37:26.862Z,4.73
2023-03-06T17:40:30.458Z,4.70
2023-03-06T17:43:33.238Z,4.63
2023-03-06T17:46:35.444Z,4.67
2023-03-06T17:49:42.865Z,4.77
2023-03-06T17:52:46.009Z,4.81
2023-03-06T17:55:51.550Z,4.69
2023-03-06T17:58:55.527Z,4.63
2023-03-06T18:01:59.039Z,4.69
2023-03-06T18:05:02.858Z,4.65
2023-03-06T18:08:08.650Z,4.68
2023-03-06T18:11:12.419Z,4.63
2023-03-06T18:14:15.568Z,4.66
2023-03-06T18:17:18.811Z,4.82
2023-03-06T18:20:21.550Z,4.59
2023-03-06T18:23:24.379Z,4.69
2023-03-06T18:26:29.507Z,4.65
2023-03-06T18:29:34.877Z,4.80
2023-03-06T18:32:37.147Z,4.80
2023-03-06T18:35:44.418Z,4.73
2023-03-06T18:38:48.149Z,4.69
2023-03-06T18:41:50.711Z,4.62
2023-03-06T18:44:54.805Z,4.57
2023-03-06T18:47:57.336Z,4.59
2023-03-06T18:51:08.223Z,4.59
2023-03-06T18:54:12.224Z,4.59
2023-03-06T18:57:14.940Z,4.57
2023-03-06T19:00:17.850Z,4.57
2023-03-06T19:03:21.037Z,4.48
2023-03-06T19:06:24.582Z,4.42
2023-03-06T19:09:28.122Z,4.46
2023-03-06T19:12:33.030Z,4.68
2023-03-06T19:15:48.521Z,4.52
2023-03-06T19:18:52.259Z,4.92
2023-03-06T19:21:57.091Z,5.11
2023-03-06T19:24:59.975Z,4.82
2023-03-06T19:28:03.350Z,4.93
2023-03-06T19:31:14.824Z,4.65
2023-03-06T19:34:17.192Z,4.63
2023-03-06T19:37:19.823Z,4.66
2023-03-06T19:40:24.239Z,4.83
2023-03-06T19:43:28.660Z,4.64
2023-03-06T19:46:33.042Z,4.60
2023-03-06T19:49:36.374Z,4.53
2023-03-06T19:52:39.249Z,4.54
2023-03-06T19:55:43.236Z,4.52
2023-03-06T19:58:45.286Z,4.48
2023-03-06T20:01:47.570Z,4.53
2023-03-06T20:04:50.419Z,4.43
2023-03-06T20:07:53.351Z,4.50
2023-03-06T20:10:56.121Z,4.48
2023-03-06T20:13:59.995Z,4.31
2023-03-06T20:17:02.511Z,4.45
2023-03-06T20:20:09.721Z,4.44
2023-03-06T20:23:12.606Z,4.29
2023-03-06T20:26:15.380Z,4.28
2023-03-06T20:29:18.995Z,4.52
2023-03-06T20:32:22.607Z,4.74
2023-03-06T20:35:26.679Z,4.65
2023-03-06T20:38:29.417Z,4.80
2023-03-06T20:41:32.802Z,4.75
2023-03-06T20:44:37.094Z,4.77
2023-03-06T20:47:39.688Z,4.75
2023-03-06T20:50:43.744Z,4.74
2023-03-06T20:53:48.148Z,4.83
2023-03-06T20:56:50.842Z,4.91
2023-03-06T20:59:55.911Z,4.85
2023-03-06T21:02:58.165Z,4.81
2023-03-06T21:06:00.533Z,5.03
2023-03-06T21:09:05.458Z,5.02
2023-03-06T21:12:07.848Z,5.01
2023-03-06T21:15:10.827Z,4.79
2023-03-06T21:18:13.334Z,4.61
2023-03-06T21:21:18.689Z,4.77
2023-03-06T21:24:21.437Z,4.50
2023-03-06T21:27:23.693Z,4.80
2023-03-06T21:30:29.769Z,5.04
2023-03-06T21:33:32.095Z,4.98
2023-03-06T21:36:34.524Z,4.96
2023-03-06T21:39:36.838Z,4.95
2023-03-06T21:42:39.163Z,4.96
2023-03-06T21:45:46.227Z,4.86
2023-03-06T21:48:48.889Z,4.53
2023-03-06T21:51:51.705Z,4.78
2023-03-06T21:54:53.703Z,4.88
2023-03-06T21:57:56.474Z,4.70
2023-03-06T22:00:58.835Z,4.77
2023-03-06T22:04:01.401Z,4.72
2023-03-06T22:07:03.727Z,4.74
2023-03-06T22:10:07.503Z,4.73
2023-03-06T22:13:09.875Z,4.77
2023-03-06T22:16:12.948Z,4.67
2023-03-06T22:19:15.836Z,4.64
2023-03-06T22:22:20.007Z,4.88
2023-03-06T22:25:22.135Z,4.89
2023-03-06T22:28:24.648Z,4.81
2023-03-06T22:31:29.237Z,4.80
2023-03-06T22:34:32.039Z,4.84
2023-03-06T22:37:34.316Z,4.80
2023-03-06T22:40:36.467Z,4.72
2023-03-06T22:43:39.062Z,4.61
2023-03-06T22:46:41.897Z,4.72
2023-03-06T22:49:44.356Z,4.75
2023-03-06T22:52:49.390Z,4.68
2023-03-06T22:55:51.722Z,4.63
2023-03-06T22:58:53.892Z,4.86
2023-03-06T23:01:57.077Z,4.81
2023-03-06T23:04:59.537Z,4.92
2023-03-06T23:08:01.659Z,4.87
2023-03-06T23:11:10.184Z,5.02
2023-03-06T23:14:12.859Z,5.02
2023-03-06T23:17:14.906Z,4.58
2023-03-06T23:20:17.770Z,4.58
2023-03-06T23:23:22.246Z,4.66
2023-03-06T23:26:27.880Z,4.74
2023-03-06T23:29:29.970Z,4.78
2023-03-06T23:32:33.808Z,4.70
2023-03-06T23:35:38.078Z,4.65
2023-03-06T23:38:44.392Z,4.64
2023-03-06T23:41:46.953Z,4.62
2023-03-06T23:44:49.237Z,4.63
2023-03-06T23:47:51.580Z,4.63
2023-03-06T23:50:54.145Z,4.56
2023-03-06T23:53:58.854Z,4.31
2023-03-06T23:57:01.149Z,4.41
